Time;durP1;ratioP1;P1;durP2;ratioP2;P2;SDS_P1;SDS_P2;PMS_P1;PMS_P2;Temp;Humidity;BMP_temperature;BMP_pressure;BME280_temperature;BME280_humidity;BME280_pressure;Samples;Min_cycle;Max_cycle;Signal;HPM_P1;HPM_P2
2022/06/25 00:00:38;;;;;;;8.40;5.80;;;;;;;18.07;100.00;99986.06;6129809;29;20074;-89
2022/06/25 00:03:41;;;;;;;6.70;5.97;;;;;;;18.14;100.00;99991.38;6131217;28;20810;-90
2022/06/25 00:06:43;;;;;;;6.97;5.85;;;;;;;18.21;100.00;99989.63;6133565;28;20098;-89
2022/06/25 00:09:45;;;;;;;9.00;5.90;;;;;;;18.19;100.00;99996.88;6132094;29;20054;-89
2022/06/25 00:12:47;;;;;;;9.00;5.85;;;;;;;18.18;100.00;99995.22;6134591;28;20050;-89
2022/06/25 00:15:49;;;;;;;8.10;5.55;;;;;;;18.18;100.00;99996.03;6118262;29;20078;-89
2022/06/25 00:18:51;;;;;;;7.68;5.88;;;;;;;18.16;100.00;100008.53;6125752;28;20043;-89
2022/06/25 00:21:53;;;;;;;8.40;5.80;;;;;;;18.18;100.00;100017.00;6129244;29;20046;-89
2022/06/25 00:24:55;;;;;;;9.23;5.55;;;;;;;18.23;100.00;100013.84;6132186;29;20745;-90
2022/06/25 00:27:57;;;;;;;8.57;6.03;;;;;;;18.22;100.00;100020.09;6124204;28;20043;-90
2022/06/25 00:30:59;;;;;;;6.20;5.30;;;;;;;18.15;100.00;100022.59;6120784;28;20063;-89
2022/06/25 00:34:01;;;;;;;8.18;5.40;;;;;;;18.09;100.00;100023.34;6131576;29;20039;-90
2022/06/25 00:37:03;;;;;;;6.03;4.75;;;;;;;18.08;100.00;100032.19;6130002;28;20039;-89
2022/06/25 00:40:06;;;;;;;6.82;4.75;;;;;;;18.11;100.00;100034.47;6133349;28;20043;-89
2022/06/25 00:43:08;;;;;;;6.63;5.18;;;;;;;18.10;100.00;100042.50;6123387;29;20514;-89
2022/06/25 00:46:09;;;;;;;7.60;5.15;;;;;;;18.05;100.00;100043.03;6127077;29;20055;-90
2022/06/25 00:49:11;;;;;;;5.53;4.13;;;;;;;17.97;100.00;100030.03;6146095;28;20102;-89
2022/06/25 00:52:16;;;;;;;7.45;4.68;;;;;;;17.86;100.00;100039.97;6128900;29;20055;-91
2022/06/25 00:55:21;;;;;;;10.77;4.72;;;;;;;17.74;100.00;100037.94;6123838;29;20405;-89
2022/06/25 00:58:24;;;;;;;6.32;4.82;;;;;;;17.68;100.00;100041.28;6120544;28;20046;-89
2022/06/25 01:01:26;;;;;;;9.90;5.25;;;;;;;17.57;100.00;100037.31;6124080;29;20036;-89
2022/06/25 01:04:29;;;;;;;10.13;5.15;;;;;;;17.51;100.00;100027.53;6117688;28;20563;-90
2022/06/25 01:07:32;;;;;;;6.85;5.15;;;;;;;17.48;100.00;100027.91;6130340;29;20050;-91
2022/06/25 01:10:34;;;;;;;7.43;5.55;;;;;;;17.44;100.00;100030.09;6108604;29;20539;-90
2022/06/25 01:13:37;;;;;;;6.38;5.40;;;;;;;17.41;100.00;100036.44;6122188;29;20074;-89
2022/06/25 01:16:41;;;;;;;6.38;5.25;;;;;;;17.41;100.00;100030.41;6135382;29;20047;-89
2022/06/25 01:19:43;;;;;;;7.20;5.60;;;;;;;17.43;100.00;100021.41;6130828;29;20075;-90
2022/06/25 01:22:45;;;;;;;5.72;4.93;;;;;;;17.44;100.00;100041.34;6125403;29;20547;-90
2022/06/25 01:25:47;;;;;;;7.03;5.30;;;;;;;17.43;100.00;100036.28;6131147;28;20051;-89
2022/06/25 01:28:49;;;;;;;6.22;5.10;;;;;;;17.46;100.00;100046.38;6123231;28;20055;-89
2022/06/25 01:31:52;;;;;;;9.13;7.78;;;;;;;17.45;100.00;100042.16;6135200;28;20047;-89
2022/06/25 01:34:54;;;;;;;12.88;8.98;;;;;;;17.43;100.00;100042.31;6134650;28;20082;-89
2022/06/25 01:37:55;;;;;;;7.38;5.80;;;;;;;17.42;100.00;100051.19;6118367;29;20058;-89
2022/06/25 01:40:57;;;;;;;5.97;5.10;;;;;;;17.40;100.00;100047.91;6127416;29;20408;-89
2022/06/25 01:43:59;;;;;;;5.50;4.97;;;;;;;17.37;100.00;100039.63;6138493;29;20066;-89
2022/06/25 01:47:01;;;;;;;6.32;5.10;;;;;;;17.36;100.00;100056.31;6130156;29;20404;-89
2022/06/25 01:50:04;;;;;;;6.63;5.60;;;;;;;17.33;100.00;100060.09;6133140;29;20094;-89
2022/06/25 01:53:06;;;;;;;7.68;5.60;;;;;;;17.30;100.00;100064.88;6134303;29;20067;-89
2022/06/25 01:56:08;;;;;;;6.70;5.03;;;;;;;17.27;100.00;100067.84;6127720;29;20074;-89
2022/06/25 01:59:10;;;;;;;10.23;6.32;;;;;;;17.24;100.00;100063.75;6144806;28;20517;-89
2022/06/25 02:02:13;;;;;;;5.93;5.13;;;;;;;17.19;100.00;100064.28;6127342;29;20365;-89
2022/06/25 02:05:56;;;;;;;7.82;5.57;;;;;;;17.21;100.00;100069.34;6128094;28;20631;-89
2022/06/25 02:08:40;;;;;;;10.15;6.03;;;;;;;17.17;100.00;100066.28;6126975;29;20047;-89
2022/06/25 02:11:42;;;;;;;7.75;5.95;;;;;;;17.16;100.00;100074.28;6132355;29;20112;-89
2022/06/25 02:14:44;;;;;;;7.47;5.97;;;;;;;17.16;100.00;100064.63;6129119;28;20075;-89
2022/06/25 02:17:46;;;;;;;6.90;5.80;;;;;;;17.11;100.00;100066.97;6136066;29;20497;-89
2022/06/25 02:20:48;;;;;;;6.70;5.68;;;;;;;17.10;100.00;100073.19;6131562;29;20055;-89
2022/06/25 02:23:50;;;;;;;7.25;5.85;;;;;;;17.11;100.00;100079.22;6117929;29;20627;-89
2022/06/25 02:26:52;;;;;;;6.90;6.20;;;;;;;17.11;100.00;100069.56;6121193;29;20835;-89
2022/06/25 02:29:54;;;;;;;10.02;6.70;;;;;;;17.11;100.00;100077.41;6123682;29;20051;-89
2022/06/25 02:32:56;;;;;;;7.57;6.47;;;;;;;17.13;100.00;100079.88;6127162;28;20050;-89
2022/06/25 02:35:57;;;;;;;8.18;6.57;;;;;;;17.16;100.00;100082.13;6124077;29;20054;-89
2022/06/25 02:39:00;;;;;;;8.25;6.85;;;;;;;17.18;100.00;100080.16;6128479;28;20839;-88
2022/06/25 02:42:03;;;;;;;8.88;6.63;;;;;;;17.20;100.00;100083.41;6129770;29;20043;-89
2022/06/25 02:45:08;;;;;;;7.45;6.65;;;;;;;17.19;100.00;100087.84;6141036;28;20418;-89
2022/06/25 02:48:12;;;;;;;7.43;6.60;;;;;;;17.21;100.00;100090.25;6118207;29;20062;-89
2022/06/25 02:51:15;;;;;;;7.38;6.50;;;;;;;17.22;100.00;100090.09;6121348;29;20055;-89
2022/06/25 02:54:18;;;;;;;8.13;6.20;;;;;;;17.24;100.00;100089.91;6127751;29;20122;-89
2022/06/25 03:00:40;;;;;;;9.55;6.45;;;;;;;17.31;100.00;100090.84;6132238;29;20414;-89
2022/06/25 03:03:44;;;;;;;7.65;6.85;;;;;;;17.36;100.00;100095.53;6129785;28;20059;-89
2022/06/25 03:06:46;;;;;;;9.50;6.65;;;;;;;17.36;100.00;100098.97;6118761;29;20747;-89
2022/06/25 03:09:49;;;;;;;7.82;6.45;;;;;;;17.37;100.00;100097.19;6129343;29;20082;-88
2022/06/25 03:12:51;;;;;;;8.10;6.68;;;;;;;17.37;100.00;100099.81;6134030;28;20109;-88
2022/06/25 03:15:57;;;;;;;7.65;6.75;;;;;;;17.40;100.00;100094.22;6119573;29;20051;-88
2022/06/25 03:19:01;;;;;;;7.93;6.85;;;;;;;17.42;100.00;100100.09;6128250;29;20525;-89
2022/06/25 03:22:22;;;;;;;7.45;6.10;;;;;;;17.39;100.00;100105.66;6112204;29;20089;-89
2022/06/25 03:25:24;;;;;;;10.05;6.07;;;;;;;17.35;100.00;100109.63;6118864;29;20043;-89
2022/06/25 03:28:28;;;;;;;7.50;5.63;;;;;;;17.31;100.00;100103.91;6128425;29;20052;-89
2022/06/25 03:31:31;;;;;;;8.13;6.13;;;;;;;17.28;100.00;100101.66;6115978;29;20095;-89
2022/06/25 03:34:37;;;;;;;7.57;6.10;;;;;;;17.30;100.00;100104.91;6112307;29;20557;-89
2022/06/25 03:37:40;;;;;;;10.25;5.88;;;;;;;17.34;100.00;100105.38;6125205;28;20059;-89
2022/06/25 03:40:42;;;;;;;8.40;5.22;;;;;;;17.42;100.00;100108.75;6133612;29;20129;-89
2022/06/25 03:43:47;;;;;;;6.95;6.25;;;;;;;17.48;100.00;100111.66;6132450;29;20095;-89
2022/06/25 03:46:51;;;;;;;6.28;5.22;;;;;;;17.51;100.00;100109.47;6115555;29;20055;-89
2022/06/25 03:49:55;;;;;;;7.03;5.40;;;;;;;17.60;100.00;100113.66;6132858;29;20047;-89
2022/06/25 03:52:59;;;;;;;6.38;5.78;;;;;;;17.68;100.00;100122.44;6130644;29;20077;-89
2022/06/25 03:56:03;;;;;;;6.03;5.47;;;;;;;17.75;100.00;100113.69;6133002;29;20112;-88
2022/06/25 03:59:12;;;;;;;6.07;5.47;;;;;;;17.78;100.00;100126.41;6132622;29;20426;-89
2022/06/25 04:02:14;;;;;;;7.88;5.22;;;;;;;17.80;100.00;100124.47;6123524;28;20043;-88
2022/06/25 04:05:36;;;;;;;6.55;4.82;;;;;;;17.84;100.00;100123.13;6133243;28;20516;-89
2022/06/25 04:08:50;;;;;;;6.80;5.45;;;;;;;17.86;100.00;100122.94;6134475;29;20584;-89
2022/06/25 04:11:56;;;;;;;6.25;5.10;;;;;;;17.89;100.00;100132.25;6120449;29;20043;-89
2022/06/25 04:14:59;;;;;;;13.23;7.90;;;;;;;17.93;100.00;100131.72;6130292;29;20047;-89
2022/06/25 04:18:03;;;;;;;10.00;7.05;;;;;;;18.00;100.00;100135.25;6134613;28;20070;-89
2022/06/25 04:21:06;;;;;;;10.65;7.32;;;;;;;18.11;100.00;100141.03;6135066;29;20051;-89
2022/06/25 04:24:08;;;;;;;5.75;5.07;;;;;;;18.20;100.00;100138.16;6127834;28;20164;-89
2022/06/25 04:29:03;;;;;;;6.10;4.93;;;;;;;18.28;100.00;100143.31;6113144;29;20050;-89
2022/06/25 04:30:33;;;;;;;5.03;4.57;;;;;;;18.39;100.00;100144.66;6132512;28;20473;-89
2022/06/25 04:33:36;;;;;;;6.43;3.88;;;;;;;18.52;100.00;100151.88;6124174;29;20429;-89
2022/06/25 04:36:41;;;;;;;4.82;3.88;;;;;;;18.59;100.00;100152.78;6135276;29;20055;-89
2022/06/25 04:39:57;;;;;;;4.97;4.40;;;;;;;18.67;100.00;100163.16;6115959;29;20493;-90
2022/06/25 04:42:59;;;;;;;5.45;3.65;;;;;;;18.72;100.00;100162.59;6131123;29;20150;-89
2022/06/25 04:46:01;;;;;;;3.97;3.28;;;;;;;18.76;100.00;100170.94;6127162;28;20062;-89
2022/06/25 04:49:05;;;;;;;5.68;3.45;;;;;;;18.78;100.00;100175.03;6127413;29;20044;-89
2022/06/25 04:52:16;;;;;;;3.92;3.47;;;;;;;18.86;100.00;100174.13;6129174;29;20051;-89
2022/06/25 04:55:18;;;;;;;3.65;3.30;;;;;;;18.94;100.00;100176.63;6134744;28;20059;-89
2022/06/25 04:58:20;;;;;;;3.90;3.50;;;;;;;18.98;100.00;100167.41;6119442;29;20462;-89
2022/06/25 05:01:54;;;;;;;4.65;3.60;;;;;;;19.06;100.00;100171.72;6134060;29;20092;-89
2022/06/25 05:05:13;;;;;;;3.67;3.07;;;;;;;19.14;100.00;100175.03;6128020;29;20051;-89
2022/06/25 05:08:15;;;;;;;4.30;3.70;;;;;;;19.28;100.00;100183.06;6119033;29;20075;-89
2022/06/25 05:11:17;;;;;;;4.82;3.47;;;;;;;19.34;100.00;100182.28;6124964;29;20050;-89
2022/06/25 05:14:20;;;;;;;3.92;3.63;;;;;;;19.46;100.00;100191.28;6130515;29;20051;-89
2022/06/25 05:17:22;;;;;;;6.10;3.90;;;;;;;19.61;100.00;100187.81;6129266;29;20513;-89
2022/06/25 05:20:24;;;;;;;3.65;3.30;;;;;;;19.74;100.00;100186.13;6132985;28;20048;-89
2022/06/25 05:23:26;;;;;;;5.25;3.08;;;;;;;19.92;100.00;100187.47;6131636;29;20053;-90
2022/06/25 05:26:29;;;;;;;3.40;3.10;;;;;;;20.08;100.00;100196.91;6138616;28;20047;-89
2022/06/25 05:29:31;;;;;;;3.38;2.75;;;;;;;20.22;100.00;100207.31;6140131;29;20604;-90
2022/06/25 05:32:34;;;;;;;3.55;2.88;;;;;;;20.37;100.00;100207.19;6128019;29;20039;-90
2022/06/25 05:35:37;;;;;;;3.05;2.42;;;;;;;20.51;100.00;100215.97;6139473;28;20047;-90
2022/06/25 05:38:39;;;;;;;4.35;3.20;;;;;;;20.65;100.00;100219.50;6138007;29;20054;-90
2022/06/25 05:41:41;;;;;;;4.68;3.22;;;;;;;20.78;100.00;100224.84;6139167;28;20069;-90
2022/06/25 05:44:43;;;;;;;4.47;2.83;;;;;;;20.95;100.00;100219.25;6128372;28;20051;-90
2022/06/25 05:47:45;;;;;;;3.42;3.10;;;;;;;21.12;100.00;100225.78;6121573;29;20047;-90
2022/06/25 05:50:47;;;;;;;3.47;3.17;;;;;;;21.27;100.00;100223.00;6132088;29;20058;-90
2022/06/25 05:53:49;;;;;;;3.63;3.33;;;;;;;21.36;100.00;100228.88;6134445;29;20050;-90
2022/06/25 05:56:51;;;;;;;4.28;3.92;;;;;;;21.36;100.00;100231.50;6132288;29;20195;-90
2022/06/25 05:59:53;;;;;;;3.75;3.45;;;;;;;21.17;100.00;100235.72;6137583;29;20054;-90
2022/06/25 06:02:55;;;;;;;4.93;3.50;;;;;;;20.93;100.00;100232.59;6137971;29;20043;-90
2022/06/25 06:05:58;;;;;;;4.38;3.55;;;;;;;20.65;100.00;100230.03;6135913;28;20043;-90
2022/06/25 06:09:00;;;;;;;4.78;3.53;;;;;;;20.44;100.00;100234.31;6129833;28;20302;-91
2022/06/25 06:12:03;;;;;;;4.63;3.28;;;;;;;20.32;100.00;100237.69;6129861;29;20066;-90
2022/06/25 06:15:05;;;;;;;3.30;3.00;;;;;;;20.29;100.00;100238.88;6129048;29;20077;-90
2022/06/25 06:18:08;;;;;;;3.78;3.10;;;;;;;20.39;100.00;100239.34;6134176;28;20236;-90
2022/06/25 06:21:10;;;;;;;6.28;4.00;;;;;;;20.25;100.00;100242.06;6121279;29;20046;-90
2022/06/25 06:24:17;;;;;;;3.22;2.80;;;;;;;20.14;100.00;100249.47;6126078;28;20069;-89
2022/06/25 06:27:19;;;;;;;3.97;2.80;;;;;;;20.22;100.00;100241.47;6137543;29;20545;-90
2022/06/25 06:30:21;;;;;;;4.85;2.40;;;;;;;20.23;100.00;100239.66;6139452;28;20047;-90
2022/06/25 06:33:23;;;;;;;3.78;2.10;;;;;;;20.22;100.00;100244.09;6132483;29;20051;-90
2022/06/25 06:36:25;;;;;;;2.40;2.00;;;;;;;20.37;100.00;100249.25;6138171;29;20150;-90
2022/06/25 06:39:27;;;;;;;4.38;2.28;;;;;;;20.40;100.00;100248.06;6138599;28;20066;-90
2022/06/25 06:42:29;;;;;;;2.70;2.20;;;;;;;20.39;100.00;100252.50;6133041;28;20108;-90
2022/06/25 06:45:31;;;;;;;2.88;2.10;;;;;;;20.31;100.00;100250.00;6133996;28;20054;-90
2022/06/25 06:48:34;;;;;;;2.40;2.20;;;;;;;20.45;100.00;100256.19;6129075;28;20039;-90
2022/06/25 06:51:36;;;;;;;2.95;2.20;;;;;;;20.46;100.00;100257.81;6142724;28;20106;-90
2022/06/25 06:54:40;;;;;;;2.55;1.85;;;;;;;20.41;100.00;100257.56;6136137;28;20054;-90
2022/06/25 06:57:42;;;;;;;2.65;2.10;;;;;;;20.37;100.00;100254.53;6124587;29;20065;-90
2022/06/25 07:00:47;;;;;;;2.95;2.10;;;;;;;20.52;100.00;100256.22;6138889;29;20043;-90
2022/06/25 07:03:49;;;;;;;2.22;1.90;;;;;;;20.64;100.00;100263.44;6118367;29;20090;-90
2022/06/25 07:06:51;;;;;;;3.55;2.20;;;;;;;20.71;100.00;100266.06;6138723;28;20089;-90
2022/06/25 07:09:53;;;;;;;2.20;2.00;;;;;;;20.67;100.00;100264.00;6137291;28;20078;-90
2022/06/25 07:12:55;;;;;;;2.88;2.05;;;;;;;20.64;100.00;100257.31;6137461;28;20039;-90
2022/06/25 07:15:57;;;;;;;2.33;2.00;;;;;;;20.64;100.00;100262.59;6132301;29;20047;-90
2022/06/25 07:19:00;;;;;;;2.25;1.92;;;;;;;20.68;100.00;100263.03;6134841;29;20118;-90
2022/06/25 07:22:02;;;;;;;2.00;1.80;;;;;;;20.82;100.00;100262.91;6128570;28;20125;-90
2022/06/25 07:25:05;;;;;;;2.08;1.90;;;;;;;20.87;100.00;100262.31;6132372;29;20174;-90
2022/06/25 07:28:08;;;;;;;3.72;1.83;;;;;;;20.94;100.00;100262.34;6128293;29;20088;-91
2022/06/25 07:31:10;;;;;;;1.60;1.45;;;;;;;21.12;98.85;100257.38;6134096;29;20687;-90
2022/06/25 07:34:12;;;;;;;1.95;1.77;;;;;;;21.14;98.65;100270.31;6127003;29;20457;-90
2022/06/25 07:37:14;;;;;;;2.60;1.55;;;;;;;21.23;95.99;100271.78;6137853;28;20516;-90
2022/06/25 07:40:16;;;;;;;3.70;3.38;;;;;;;21.33;96.41;100266.94;6135798;28;20042;-90
2022/06/25 07:43:18;;;;;;;2.25;1.60;;;;;;;21.38;96.71;100272.44;6135801;29;20171;-91
2022/06/25 07:46:20;;;;;;;2.40;1.60;;;;;;;21.47;96.15;100265.22;6129856;28;20044;-90
2022/06/25 07:49:23;;;;;;;1.75;1.60;;;;;;;21.57;96.30;100264.81;6120709;29;20040;-90
2022/06/25 07:52:25;;;;;;;3.05;1.55;;;;;;;21.61;95.03;100273.94;6126127;28;20729;-90
2022/06/25 07:55:27;;;;;;;1.77;1.67;;;;;;;21.56;94.74;100266.63;6126558;28;20040;-90
2022/06/25 07:58:31;;;;;;;1.80;1.70;;;;;;;21.56;96.19;100271.88;6135588;29;20046;-90
2022/06/25 08:01:32;;;;;;;2.13;1.63;;;;;;;21.63;94.65;100271.91;6127839;29;20500;-89
2022/06/25 08:04:35;;;;;;;1.75;1.63;;;;;;;21.76;94.37;100273.75;6128167;29;20031;-89
2022/06/25 08:07:37;;;;;;;1.95;1.63;;;;;;;22.00;92.94;100283.72;6119662;28;20577;-89
2022/06/25 08:10:42;;;;;;;2.20;1.52;;;;;;;22.20;90.84;100278.47;6124413;28;20054;-89
2022/06/25 08:13:44;;;;;;;4.13;2.08;;;;;;;22.27;91.15;100286.38;6126017;28;20047;-89
2022/06/25 08:16:46;;;;;;;2.35;1.52;;;;;;;22.26;88.77;100284.75;6122858;29;20043;-90
2022/06/25 08:19:49;;;;;;;3.40;1.65;;;;;;;22.26;89.48;100287.38;6124013;29;20170;-90
2022/06/25 08:22:51;;;;;;;1.73;1.55;;;;;;;22.22;89.87;100294.09;6123508;29;20643;-90
2022/06/25 08:25:53;;;;;;;2.63;1.70;;;;;;;22.34;90.19;100288.00;6127441;28;20778;-87
2022/06/25 08:28:54;;;;;;;3.33;1.70;;;;;;;22.40;87.80;100291.63;6123858;29;20074;-88
2022/06/25 08:31:57;;;;;;;1.95;1.70;;;;;;;22.30;88.73;100288.63;6123452;29;20200;-90
2022/06/25 08:34:59;;;;;;;3.28;1.58;;;;;;;22.28;87.94;100283.53;6118497;29;20565;-89
2022/06/25 08:38:02;;;;;;;1.60;1.50;;;;;;;22.26;86.15;100285.59;6127987;29;20066;-89
2022/06/25 08:41:04;;;;;;;2.60;1.80;;;;;;;22.34;86.92;100284.56;6133187;28;20769;-90
2022/06/25 08:44:06;;;;;;;2.72;1.65;;;;;;;22.48;85.19;100287.97;6126906;29;20039;-89
2022/06/25 08:47:10;;;;;;;2.08;1.55;;;;;;;22.57;83.73;100294.66;6139946;28;20039;-90
2022/06/25 08:50:21;;;;;;;4.22;1.70;;;;;;;22.76;81.46;100290.38;6131283;29;20043;-90
2022/06/25 08:53:24;;;;;;;2.35;1.70;;;;;;;22.73;79.82;100283.69;6134208;29;20047;-89
2022/06/25 08:56:27;;;;;;;2.70;1.60;;;;;;;22.52;80.88;100282.09;6133014;29;20050;-90
2022/06/25 08:59:30;;;;;;;2.90;1.70;;;;;;;22.28;81.63;100282.72;6144565;28;20118;-90
2022/06/25 09:02:32;;;;;;;3.10;1.40;;;;;;;22.07;83.11;100278.44;6132711;29;20512;-89
2022/06/25 09:05:37;;;;;;;3.75;1.90;;;;;;;22.04;84.99;100282.31;6132942;29;20047;-89
2022/06/25 09:08:42;;;;;;;4.63;1.70;;;;;;;22.38;85.54;100277.84;6127068;29;20634;-89
2022/06/25 09:11:57;;;;;;;5.75;2.08;;;;;;;22.78;84.36;100277.75;6128996;29;20043;-90
2022/06/25 09:14:59;;;;;;;2.65;1.45;;;;;;;23.08;81.28;100282.56;6127962;29;20048;-90
2022/06/25 09:18:10;;;;;;;1.58;1.48;;;;;;;23.59;77.80;100284.34;6137230;28;20047;-85
2022/06/25 09:21:12;;;;;;;2.38;1.70;;;;;;;23.86;72.41;100290.31;6126559;29;20036;-87
2022/06/25 09:24:14;;;;;;;4.78;1.83;;;;;;;23.85;72.62;100281.56;6124313;29;20047;-88
2022/06/25 09:27:42;;;;;;;3.50;1.73;;;;;;;24.14;73.43;100292.53;6127908;29;20117;-87
2022/06/25 09:30:44;;;;;;;2.08;1.55;;;;;;;24.65;68.89;100285.38;6130106;29;20051;-87
2022/06/25 09:33:48;;;;;;;2.47;1.73;;;;;;;25.05;66.93;100284.94;6127675;28;20537;-87
2022/06/25 09:36:50;;;;;;;3.35;1.90;;;;;;;25.48;62.37;100276.03;6124946;29;20130;-88
2022/06/25 09:39:54;;;;;;;2.70;1.67;;;;;;;25.78;61.92;100284.75;6108049;29;20039;-87
2022/06/25 09:42:57;;;;;;;1.48;1.38;;;;;;;25.76;59.60;100284.19;6126464;29;20071;-88
2022/06/25 09:46:03;;;;;;;2.65;1.60;;;;;;;25.81;61.02;100294.09;6128157;28;20046;-88
2022/06/25 09:49:21;;;;;;;1.92;1.83;;;;;;;25.99;59.31;100287.94;6126229;28;20046;-88
2022/06/25 09:52:23;;;;;;;2.03;1.50;;;;;;;25.92;59.22;100282.75;6129827;29;20903;-89
2022/06/25 09:55:37;;;;;;;1.85;1.50;;;;;;;25.83;60.84;100272.66;6126842;29;20643;-89
2022/06/25 09:58:39;;;;;;;1.77;1.67;;;;;;;25.91;62.83;100275.00;6121961;29;20179;-89
2022/06/25 10:01:42;;;;;;;4.57;1.50;;;;;;;25.85;60.04;100273.25;6120947;29;20047;-88
2022/06/25 10:04:46;;;;;;;2.80;1.70;;;;;;;25.80;61.92;100273.94;6125944;28;20048;-88
2022/06/25 10:08:00;;;;;;;1.73;1.63;;;;;;;25.74;60.42;100275.66;6123017;29;20044;-88
2022/06/25 10:11:04;;;;;;;2.70;1.60;;;;;;;25.55;62.46;100268.81;6124882;28;20043;-89
2022/06/25 10:14:06;;;;;;;1.58;1.48;;;;;;;25.39;59.85;100262.31;6128474;29;20430;-88
2022/06/25 10:17:09;;;;;;;1.60;1.50;;;;;;;25.25;61.90;100260.88;6128085;29;20069;-89
2022/06/25 10:20:12;;;;;;;3.38;1.60;;;;;;;25.58;60.76;100263.84;6125640;29;20047;-88
2022/06/25 10:23:15;;;;;;;1.60;1.50;;;;;;;25.72;58.60;100269.75;6126368;29;20040;-88
2022/06/25 10:26:19;;;;;;;2.90;1.42;;;;;;;25.53;59.85;100266.34;6128136;29;20048;-88
2022/06/25 10:29:31;;;;;;;2.65;1.73;;;;;;;25.64;63.05;100256.84;6125627;29;20044;-89
2022/06/25 10:32:46;;;;;;;1.98;1.45;;;;;;;25.95;60.63;100260.25;6125373;29;20035;-89
2022/06/25 10:35:50;;;;;;;4.00;1.70;;;;;;;25.85;60.30;100260.81;6131169;29;20513;-88
2022/06/25 10:38:52;;;;;;;2.47;1.60;;;;;;;25.75;61.03;100249.94;6127334;28;20032;-89
2022/06/25 10:45:33;;;;;;;1.88;1.50;;;;;;;26.01;55.09;100259.31;6123336;29;20083;-88
2022/06/25 10:48:35;;;;;;;2.22;1.70;;;;;;;25.88;59.58;100254.25;6123243;28;20042;-88
2022/06/25 10:51:45;;;;;;;1.80;1.70;;;;;;;26.11;56.14;100248.16;6141744;28;20052;-88
2022/06/25 10:54:47;;;;;;;1.80;1.40;;;;;;;26.24;57.85;100245.28;6125415;28;20687;-89
2022/06/25 10:57:49;;;;;;;2.05;1.50;;;;;;;26.36;56.33;100250.56;6126277;29;20498;-86
2022/06/25 11:00:54;;;;;;;2.88;1.60;;;;;;;26.61;51.89;100251.16;6130356;28;20071;-88
2022/06/25 11:03:59;;;;;;;2.63;1.40;;;;;;;26.88;54.05;100252.47;6123768;29;20046;-88
2022/06/25 11:07:17;;;;;;;2.55;1.65;;;;;;;27.36;51.27;100259.25;6127810;29;20039;-88
2022/06/25 11:10:39;;;;;;;3.17;1.55;;;;;;;27.67;52.01;100252.59;6122409;29;20044;-89
2022/06/25 11:13:42;;;;;;;2.92;1.67;;;;;;;27.74;51.06;100249.78;6119453;28;20143;-87
2022/06/25 11:16:44;;;;;;;3.42;1.50;;;;;;;27.53;49.48;100256.59;6129199;29;20043;-88
2022/06/25 11:19:45;;;;;;;2.20;1.60;;;;;;;27.27;51.08;100253.50;6131556;28;20161;-89
2022/06/25 11:22:50;;;;;;;1.83;1.38;;;;;;;27.28;52.71;100255.94;6136829;28;20047;-88
2022/06/25 11:29:24;;;;;;;1.70;1.60;;;;;;;26.90;52.33;100253.84;6137103;28;20073;-89
2022/06/25 11:32:34;;;;;;;1.67;1.58;;;;;;;27.15;54.88;100242.88;6119267;29;20047;-89
2022/06/25 11:35:40;;;;;;;5.05;1.80;;;;;;;27.41;49.33;100246.84;6134290;29;20062;-87
2022/06/25 11:38:49;;;;;;;1.63;1.52;;;;;;;27.32;49.82;100239.50;6128514;28;20050;-88
2022/06/25 11:41:51;;;;;;;1.92;1.83;;;;;;;27.13;50.54;100246.81;6131854;28;20166;-88
2022/06/25 11:44:56;;;;;;;1.60;1.50;;;;;;;26.90;50.50;100242.41;6125978;29;20652;-87
2022/06/25 11:48:03;;;;;;;1.70;1.60;;;;;;;26.89;54.33;100238.16;6135718;28;20042;-88
2022/06/25 11:51:08;;;;;;;1.70;1.60;;;;;;;27.31;49.38;100246.69;6120399;29;20063;-87
2022/06/25 11:54:10;;;;;;;3.13;1.85;;;;;;;27.32;47.32;100242.97;6135768;28;20052;-86
2022/06/25 11:57:23;;;;;;;1.58;1.48;;;;;;;27.12;51.02;100242.56;6125058;29;20054;-86
2022/06/25 12:00:25;;;;;;;1.83;1.60;;;;;;;27.26;52.84;100239.41;6127150;29;20116;-86
2022/06/25 12:03:29;;;;;;;1.90;1.63;;;;;;;28.19;51.24;100240.91;6134794;29;20065;-87
2022/06/25 12:06:33;;;;;;;1.70;1.60;;;;;;;29.18;49.41;100240.03;6134421;29;20032;-87
2022/06/25 12:09:35;;;;;;;3.05;1.60;;;;;;;29.37;51.30;100241.28;6119819;28;20046;-87
2022/06/25 12:12:43;;;;;;;3.17;1.50;;;;;;;29.35;46.64;100240.72;6137726;28;20055;-86
2022/06/25 12:15:45;;;;;;;3.35;1.58;;;;;;;29.03;44.87;100242.50;6133184;29;20043;-86
2022/06/25 12:18:47;;;;;;;3.35;1.50;;;;;;;28.44;44.98;100235.91;6129053;29;20095;-86
2022/06/25 12:21:49;;;;;;;2.08;1.80;;;;;;;28.33;49.44;100232.31;6130333;28;20183;-86
2022/06/25 12:24:53;;;;;;;2.67;2.20;;;;;;;28.66;48.15;100230.63;6136081;28;20047;-87
2022/06/25 12:27:56;;;;;;;1.50;1.40;;;;;;;29.50;46.82;100226.72;6128821;28;20147;-86
2022/06/25 12:31:08;;;;;;;4.32;3.30;;;;;;;29.36;44.21;100228.97;6138399;29;20047;-86
2022/06/25 12:34:10;;;;;;;1.52;1.42;;;;;;;29.01;44.70;100226.75;6132455;28;20042;-86
2022/06/25 12:37:25;;;;;;;2.83;1.70;;;;;;;29.27;48.92;100219.84;6136039;28;20480;-87
2022/06/25 12:40:28;;;;;;;1.95;1.33;;;;;;;30.19;43.26;100227.75;6133958;28;20043;-87
2022/06/25 12:43:43;;;;;;;3.22;1.30;;;;;;;30.85;41.22;100221.94;6135390;28;20837;-87
2022/06/25 12:47:05;;;;;;;2.38;1.25;;;;;;;31.16;40.90;100228.16;6118012;29;20804;-87
2022/06/25 12:50:25;;;;;;;1.67;1.52;;;;;;;31.58;41.68;100235.16;6127968;29;20047;-87
2022/06/25 12:53:27;;;;;;;;;;;;;;;31.31;41.18;100232.72;6131020;29;20043;-87
2022/06/25 12:56:29;;;;;;;2.58;1.50;;;;;;;31.04;39.99;100230.25;6133321;29;19926;-87
2022/06/25 12:59:31;;;;;;;2.22;1.35;;;;;;;30.59;40.49;100223.69;6124977;29;20043;-87
2022/06/25 13:02:32;;;;;;;3.95;1.67;;;;;;;30.34;38.67;100221.72;6134741;29;20328;-86
2022/06/25 13:05:36;;;;;;;1.90;1.40;;;;;;;30.12;44.09;100222.63;6134979;28;20254;-87
2022/06/25 13:08:38;;;;;;;1.42;1.33;;;;;;;30.68;42.49;100222.09;6137373;28;20051;-87
2022/06/25 13:11:40;;;;;;;1.92;1.55;;;;;;;31.33;44.85;100211.84;6138626;28;20547;-87
2022/06/25 13:14:43;;;;;;;1.73;1.40;;;;;;;31.82;41.62;100219.31;6137908;28;20137;-88
2022/06/25 13:17:45;;;;;;;2.22;1.30;;;;;;;32.08;40.60;100216.66;6139056;28;20416;-88
2022/06/25 13:20:47;;;;;;;1.38;1.25;;;;;;;32.22;38.65;100212.28;6127414;28;20639;-86
2022/06/25 13:23:49;;;;;;;2.92;1.30;;;;;;;32.39;40.44;100211.97;6139094;28;20436;-87
2022/06/25 13:26:52;;;;;;;2.50;1.30;;;;;;;31.95;37.56;100209.97;6129612;28;20047;-88
2022/06/25 13:29:54;;;;;;;4.22;1.88;;;;;;;31.53;39.31;100217.22;6131755;29;20682;-87
2022/06/25 13:32:56;;;;;;;1.92;1.48;;;;;;;31.12;36.75;100217.16;6136405;28;20867;-87
2022/06/25 13:35:59;;;;;;;1.83;1.40;;;;;;;30.69;40.12;100218.38;6132154;28;20048;-87
2022/06/25 13:39:03;;;;;;;2.10;1.30;;;;;;;30.15;44.34;100221.31;6135002;29;20291;-87
2022/06/25 13:42:05;;;;;;;3.53;1.48;;;;;;;29.68;43.00;100228.22;6127731;28;20125;-87
2022/06/25 13:45:07;;;;;;;1.58;1.30;;;;;;;29.34;44.17;100215.13;6132663;29;20496;-87
2022/06/25 13:48:10;;;;;;;1.20;1.10;;;;;;;29.14;46.74;100220.25;6130917;29;20043;-87
2022/06/25 13:51:12;;;;;;;1.95;1.55;;;;;;;29.12;46.27;100211.72;6135006;29;20496;-87
2022/06/25 13:54:15;;;;;;;2.30;1.20;;;;;;;29.13;43.51;100211.44;6131637;29;20043;-87
2022/06/25 13:57:16;;;;;;;2.10;1.30;;;;;;;28.97;44.87;100213.13;6127835;28;20507;-87
2022/06/25 14:00:18;;;;;;;1.75;1.25;;;;;;;28.83;45.43;100211.13;6127235;29;20126;-87
2022/06/25 14:03:20;;;;;;;1.52;1.23;;;;;;;29.12;41.25;100209.84;6133432;29;20047;-87
2022/06/25 14:06:22;;;;;;;2.40;1.30;;;;;;;29.98;43.06;100216.94;6111621;29;20048;-88
2022/06/25 14:09:24;;;;;;;2.85;1.30;;;;;;;31.08;43.03;100216.09;6122340;29;20413;-87
2022/06/25 14:12:26;;;;;;;1.35;1.25;;;;;;;31.89;39.43;100217.19;6123310;28;20745;-88
2022/06/25 14:15:28;;;;;;;2.60;1.20;;;;;;;32.09;37.93;100215.56;6126285;28;20046;-87
2022/06/25 14:18:33;;;;;;;1.65;1.30;;;;;;;32.13;37.15;100214.75;6128912;28;20040;-85
2022/06/25 14:21:34;;;;;;;1.50;1.30;;;;;;;31.24;38.93;100211.56;6131830;29;20413;-84